createdAt,value
2022-08-26T00:01:32.175Z,87.81
2022-08-26T00:04:01.449Z,87.99
2022-08-26T00:06:28.511Z,88.53
2022-08-26T00:08:54.952Z,88.88
2022-08-26T00:11:26.873Z,88.01
2022-08-26T00:13:56.889Z,88.69
2022-08-26T00:16:28.115Z,89.02
2022-08-26T00:18:55.763Z,89.27
2022-08-26T00:21:22.431Z,89.26
2022-08-26T00:23:49.902Z,89.22
2022-08-26T00:26:16.556Z,89.02
2022-08-26T00:28:43.267Z,89.78
2022-08-26T00:31:11.103Z,89.28
2022-08-26T00:33:38.831Z,88.91
2022-08-26T00:36:06.607Z,89.64
2022-08-26T00:38:35.205Z,88.82
2022-08-26T00:41:05.656Z,89.20
2022-08-26T00:43:47.166Z,89.34
2022-08-26T00:46:19.390Z,90.35
2022-08-26T00:48:50.351Z,89.50
2022-08-26T00:51:21.352Z,89.99
2022-08-26T00:53:53.651Z,89.64
2022-08-26T00:56:31.791Z,89.45
2022-08-26T00:59:01.969Z,90.35
2022-08-26T01:01:31.262Z,90.16
2022-08-26T01:04:00.008Z,90.56
2022-08-26T01:06:27.331Z,90.61
2022-08-26T01:08:54.669Z,91.13
2022-08-26T01:11:21.335Z,90.61
2022-08-26T01:13:48.865Z,90.64
2022-08-26T01:16:17.056Z,90.72
2022-08-26T01:18:45.037Z,90.76
2022-08-26T01:21:25.160Z,90.58
2022-08-26T01:23:57.714Z,90.80
2022-08-26T01:26:29.716Z,90.94
2022-08-26T01:28:58.714Z,89.85
2022-08-26T01:31:27.865Z,91.08
2022-08-26T01:34:04.911Z,91.11
2022-08-26T01:36:31.619Z,91.05
2022-08-26T01:38:58.254Z,91.01
2022-08-26T01:41:27.304Z,91.66
2022-08-26T01:43:57.231Z,90.97
2022-08-26T01:46:28.298Z,91.83
2022-08-26T01:48:57.007Z,91.47
2022-08-26T01:51:26.390Z,91.33
2022-08-26T01:53:52.978Z,91.73
2022-08-26T01:56:22.858Z,91.45
2022-08-26T01:58:56.109Z,92.05
2022-08-26T02:01:29.150Z,91.69
2022-08-26T02:04:03.167Z,92.65
2022-08-26T02:06:30.018Z,92.53
2022-08-26T02:09:02.608Z,92.49
2022-08-26T02:11:29.187Z,91.83
2022-08-26T02:14:02.119Z,91.54
2022-08-26T02:16:34.354Z,92.23
2022-08-26T02:19:04.831Z,92.44
2022-08-26T02:21:35.669Z,92.18
2022-08-26T02:24:14.478Z,91.81
2022-08-26T02:26:42.734Z,92.75
2022-08-26T02:29:30.388Z,92.61
2022-08-26T02:31:57.935Z,92.38
2022-08-26T02:34:33.313Z,93.29
2022-08-26T02:37:03.442Z,94.48
2022-08-26T02:39:31.266Z,93.56
2022-08-26T02:41:59.207Z,93.19
2022-08-26T02:44:27.323Z,93.70
2022-08-26T02:46:54.945Z,93.58
2022-08-26T02:49:22.309Z,94.08
2022-08-26T02:51:49.521Z,94.41
2022-08-26T02:54:17.318Z,94.52
2022-08-26T02:56:44.446Z,93.13
2022-08-26T02:59:15.423Z,93.52
2022-08-26T03:01:42.673Z,93.04
2022-08-26T03:04:11.686Z,93.03
2022-08-26T03:06:39.240Z,93.41
2022-08-26T03:09:07.853Z,93.14
2022-08-26T03:11:36.571Z,93.49
2022-08-26T03:14:03.874Z,92.66
2022-08-26T03:16:35.705Z,93.89
2022-08-26T03:19:04.838Z,93.50
2022-08-26T03:21:32.501Z,93.81
2022-08-26T03:23:59.458Z,94.10
2022-08-26T03:26:28.212Z,93.50
2022-08-26T03:29:17.699Z,93.98
2022-08-26T03:31:44.242Z,93.18
2022-08-26T03:34:13.922Z,93.64
2022-08-26T03:36:41.602Z,93.78
2022-08-26T03:39:08.786Z,93.90
2022-08-26T03:41:36.809Z,94.05
2022-08-26T03:44:06.530Z,94.34
2022-08-26T03:46:33.581Z,94.32
2022-08-26T03:49:02.083Z,93.92
2022-08-26T03:51:29.180Z,94.30
2022-08-26T03:53:56.046Z,94.27
2022-08-26T03:56:23.850Z,94.92
2022-08-26T03:58:50.944Z,94.81
2022-08-26T04:01:17.598Z,94.99
2022-08-26T04:03:58.202Z,94.88
2022-08-26T04:06:29.019Z,94.83
2022-08-26T04:08:57.487Z,94.39
2022-08-26T04:11:30.307Z,94.92
2022-08-26T04:14:00.747Z,94.89
2022-08-26T04:16:29.142Z,94.33
2022-08-26T04:18:57.166Z,94.38
2022-08-26T04:21:24.672Z,94.14
2022-08-26T04:23:51.808Z,94.17
2022-08-26T04:26:20.316Z,94.05
2022-08-26T04:28:48.306Z,94.36
2022-08-26T04:31:16.771Z,94.22
2022-08-26T04:33:45.462Z,94.79
2022-08-26T04:36:13.390Z,94.51
2022-08-26T04:38:39.855Z,94.37
2022-08-26T04:41:15.685Z,94.22
2022-08-26T04:43:44.539Z,93.12
2022-08-26T04:46:12.940Z,93.49
2022-08-26T04:48:40.979Z,93.60
2022-08-26T04:51:07.952Z,93.39
2022-08-26T04:53:34.835Z,93.77
2022-08-26T04:56:01.537Z,93.37
2022-08-26T04:58:30.499Z,93.53
2022-08-26T05:00:57.143Z,92.99
2022-08-26T05:03:27.215Z,92.65
2022-08-26T05:05:57.402Z,92.82
2022-08-26T05:08:24.274Z,93.98
2022-08-26T05:10:56.847Z,92.57
2022-08-26T05:13:27.147Z,92.92
2022-08-26T05:15:54.512Z,92.94
2022-08-26T05:18:24.654Z,92.99
2022-08-26T05:20:54.666Z,93.26
2022-08-26T05:23:23.166Z,93.02
2022-08-26T05:25:55.783Z,92.37
2022-08-26T05:28:25.007Z,92.09
2022-08-26T05:30:52.261Z,92.50
2022-08-26T05:33:19.030Z,91.91
2022-08-26T05:35:46.424Z,90.08
2022-08-26T05:38:18.555Z,89.80
2022-08-26T05:40:52.881Z,89.79
2022-08-26T05:43:21.458Z,89.70
2022-08-26T05:45:50.679Z,89.10
2022-08-26T05:48:22.712Z,88.47
2022-08-26T05:50:53.079Z,87.92
2022-08-26T05:53:21.447Z,85.60
2022-08-26T05:55:50.346Z,86.99
2022-08-26T05:58:22.274Z,83.50
2022-08-26T06:01:24.130Z,83.89
2022-08-26T06:03:52.128Z,83.17
2022-08-26T06:06:27.589Z,82.01
2022-08-26T06:08:57.429Z,83.74
2022-08-26T06:11:25.920Z,82.67
2022-08-26T06:13:53.958Z,81.13
2022-08-26T06:16:23.560Z,80.66
2022-08-26T06:18:52.103Z,80.68
2022-08-26T06:21:24.772Z,81.28
2022-08-26T06:24:12.407Z,79.38
2022-08-26T06:26:39.776Z,80.13
2022-08-26T06:29:09.812Z,81.53
2022-08-26T06:31:37.100Z,81.04
2022-08-26T06:34:10.496Z,80.76
2022-08-26T06:36:39.399Z,82.26
2022-08-26T06:39:10.118Z,79.99
2022-08-26T06:41:43.165Z,80.80
2022-08-26T06:44:09.992Z,80.89
2022-08-26T06:46:36.596Z,81.91
2022-08-26T06:49:03.877Z,81.27
2022-08-26T06:51:32.787Z,79.51
2022-08-26T06:54:01.976Z,80.69
2022-08-26T06:56:34.072Z,79.62
2022-08-26T06:59:00.568Z,80.61
2022-08-26T07:01:30.977Z,78.66
2022-08-26T07:04:00.923Z,78.10
2022-08-26T07:06:28.306Z,77.96
2022-08-26T07:09:04.715Z,76.45
2022-08-26T07:11:33.416Z,77.81
2022-08-26T07:14:00.378Z,75.21
2022-08-26T07:16:28.282Z,73.71
2022-08-26T07:18:56.132Z,75.49
2022-08-26T07:21:24.600Z,74.57
2022-08-26T07:23:55.465Z,73.98
2022-08-26T07:26:27.385Z,73.21
2022-08-26T07:28:56.210Z,74.24
2022-08-26T07:31:24.997Z,74.05
2022-08-26T07:33:51.816Z,73.02
2022-08-26T07:36:20.019Z,73.46
2022-08-26T07:38:48.180Z,72.59
2022-08-26T07:41:16.853Z,73.85
2022-08-26T07:43:44.793Z,73.95
2022-08-26T07:46:16.451Z,73.79
2022-08-26T07:48:46.038Z,72.40
2022-08-26T07:51:15.019Z,72.38
2022-08-26T07:53:42.566Z,70.25
2022-08-26T07:56:09.262Z,71.04
2022-08-26T07:58:38.565Z,71.52
2022-08-26T08:01:05.743Z,72.77
2022-08-26T08:03:34.475Z,72.97
2022-08-26T08:06:01.122Z,73.44
2022-08-26T08:08:29.284Z,73.36
2022-08-26T08:10:56.735Z,72.64
2022-08-26T08:13:23.521Z,71.94
2022-08-26T08:15:50.428Z,71.73
2022-08-26T08:18:17.993Z,70.54
2022-08-26T08:20:59.046Z,72.14
2022-08-26T08:23:32.459Z,69.67
2022-08-26T08:26:04.331Z,66.97
2022-08-26T08:28:30.942Z,66.59
2022-08-26T08:30:58.189Z,66.38
2022-08-26T08:33:26.605Z,65.60
2022-08-26T08:35:53.087Z,66.77
2022-08-26T08:38:19.513Z,65.53
2022-08-26T08:40:46.295Z,67.20
2022-08-26T08:43:29.333Z,67.19
2022-08-26T08:46:05.870Z,63.58
2022-08-26T08:48:37.856Z,61.41
2022-08-26T08:51:26.357Z,61.32
2022-08-26T08:53:54.988Z,61.13
2022-08-26T08:56:36.874Z,61.33
2022-08-26T08:59:22.379Z,61.09
2022-08-26T09:01:52.316Z,63.37
2022-08-26T09:04:48.223Z,63.53
2022-08-26T09:07:22.233Z,63.38
2022-08-26T09:10:01.797Z,61.71
2022-08-26T09:12:31.365Z,61.12
2022-08-26T09:15:11.347Z,62.02
2022-08-26T09:17:42.973Z,62.88
2022-08-26T09:20:28.719Z,60.87
2022-08-26T09:22:57.393Z,60.78
2022-08-26T09:25:24.013Z,61.91
2022-08-26T09:27:53.266Z,65.87
2022-08-26T09:30:29.970Z,64.04
2022-08-26T09:33:03.567Z,63.81
2022-08-26T09:35:39.643Z,62.18
2022-08-26T09:38:33.144Z,63.50
2022-08-26T09:41:02.871Z,62.14
2022-08-26T09:43:32.118Z,58.16
2022-08-26T09:46:17.681Z,60.10
2022-08-26T09:48:44.473Z,60.38
2022-08-26T09:51:31.848Z,60.30
2022-08-26T09:54:01.124Z,60.09
2022-08-26T09:56:32.591Z,59.13
2022-08-26T09:59:01.012Z,55.56
2022-08-26T10:01:35.366Z,57.49
2022-08-26T10:04:10.433Z,56.35
2022-08-26T10:06:42.203Z,57.01
2022-08-26T10:09:13.776Z,57.18
2022-08-26T10:11:50.454Z,53.44
2022-08-26T10:14:29.110Z,54.83
2022-08-26T10:17:11.306Z,52.91
2022-08-26T10:19:56.655Z,51.04
2022-08-26T10:22:49.017Z,52.96
2022-08-26T10:25:23.324Z,52.24
2022-08-26T10:28:16.986Z,50.71
2022-08-26T10:30:50.917Z,51.24
2022-08-26T10:33:18.477Z,50.51
2022-08-26T10:36:01.220Z,51.99
2022-08-26T10:38:39.615Z,50.79
2022-08-26T10:41:10.766Z,48.74
2022-08-26T10:43:56.363Z,48.80
2022-08-26T10:46:28.452Z,49.95
2022-08-26T10:49:06.582Z,47.88
2022-08-26T10:51:38.586Z,48.88
2022-08-26T10:54:16.021Z,48.92
2022-08-26T10:56:55.907Z,48.70
2022-08-26T10:59:36.789Z,48.27
2022-08-26T11:02:14.769Z,48.89
2022-08-26T11:04:58.927Z,50.00
2022-08-26T11:07:35.267Z,48.90
2022-08-26T11:10:08.733Z,50.93
2022-08-26T11:12:35.307Z,50.45
2022-08-26T11:15:06.678Z,51.92
2022-08-26T11:17:55.328Z,53.88
2022-08-26T11:20:28.021Z,51.02
2022-08-26T11:22:56.507Z,51.58
2022-08-26T11:25:30.918Z,51.72
2022-08-26T11:28:01.164Z,51.02
2022-08-26T11:30:38.838Z,51.96
2022-08-26T11:33:08.351Z,53.54
2022-08-26T11:35:37.298Z,52.57
2022-08-26T11:38:18.369Z,53.80
2022-08-26T11:40:45.052Z,53.96
2022-08-26T11:43:24.682Z,55.59
2022-08-26T11:46:10.561Z,55.87
2022-08-26T11:48:40.933Z,55.93
2022-08-26T11:51:20.921Z,56.06
2022-08-26T11:53:49.316Z,56.18
2022-08-26T11:56:31.584Z,56.29
2022-08-26T11:59:01.019Z,55.26
2022-08-26T12:01:31.325Z,55.39
2022-08-26T12:03:59.712Z,56.06
2022-08-26T12:06:38.953Z,56.14
2022-08-26T12:09:20.170Z,55.75
2022-08-26T12:11:46.665Z,55.20
2022-08-26T12:14:27.707Z,55.10
2022-08-26T12:16:54.810Z,53.29
2022-08-26T12:19:26.375Z,53.09
2022-08-26T12:22:08.451Z,53.62
2022-08-26T12:24:35.245Z,53.44
2022-08-26T12:27:17.343Z,52.03
2022-08-26T12:29:44.055Z,51.34
2022-08-26T12:32:18.342Z,51.30
2022-08-26T12:34:48.954Z,50.37
2022-08-26T12:37:15.704Z,49.40
2022-08-26T12:39:44.636Z,52.28
2022-08-26T12:42:16.988Z,48.25
2022-08-26T12:44:54.019Z,48.38
2022-08-26T12:47:35.140Z,47.64
2022-08-26T12:50:23.612Z,46.92
2022-08-26T12:53:08.710Z,47.27
2022-08-26T12:55:44.081Z,46.79
2022-08-26T12:58:26.225Z,48.17
2022-08-26T13:00:55.858Z,46.87
2022-08-26T13:03:34.653Z,46.44
2022-08-26T13:06:23.196Z,48.10
2022-08-26T13:09:09.442Z,47.19
2022-08-26T13:11:38.650Z,45.97
2022-08-26T13:14:08.007Z,48.01
2022-08-26T13:16:36.031Z,48.67
2022-08-26T13:19:10.474Z,46.81
2022-08-26T13:21:57.454Z,47.75
2022-08-26T13:24:36.900Z,45.96
2022-08-26T13:27:07.371Z,45.99
2022-08-26T13:29:33.811Z,44.24
2022-08-26T13:32:00.939Z,45.63
2022-08-26T13:34:27.895Z,44.28
2022-08-26T13:36:56.253Z,43.70
2022-08-26T13:39:23.667Z,44.64
2022-08-26T13:41:50.250Z,47.05
2022-08-26T13:44:17.351Z,41.66
2022-08-26T13:49:30.541Z,42.69
2022-08-26T13:51:56.986Z,41.94
2022-08-26T13:54:23.935Z,43.86
2022-08-26T13:56:50.385Z,44.65
2022-08-26T13:59:17.256Z,43.91
2022-08-26T14:01:43.770Z,43.34
2022-08-26T14:04:10.279Z,42.61
2022-08-26T14:06:37.442Z,43.50
2022-08-26T14:09:05.080Z,42.56
2022-08-26T14:11:48.280Z,42.05
2022-08-26T14:14:18.128Z,43.43
2022-08-26T14:16:59.084Z,41.00
2022-08-26T14:19:27.952Z,45.14
2022-08-26T14:21:54.432Z,41.23
2022-08-26T14:24:20.875Z,42.49
2022-08-26T14:26:48.488Z,42.70
2022-08-26T14:29:16.765Z,44.31
2022-08-26T14:31:43.772Z,45.59
2022-08-26T14:34:13.006Z,44.40
2022-08-26T14:36:39.484Z,44.90
2022-08-26T14:39:09.240Z,45.50
2022-08-26T14:41:40.999Z,45.79
2022-08-26T14:44:12.556Z,44.51
2022-08-26T14:46:50.687Z,43.98
2022-08-26T14:49:18.259Z,44.01
2022-08-26T14:51:45.217Z,42.50
2022-08-26T14:54:12.807Z,45.10
2022-08-26T14:56:48.805Z,44.98
2022-08-26T14:59:18.851Z,48.37
2022-08-26T15:01:45.544Z,49.03
2022-08-26T15:04:12.897Z,49.60
2022-08-26T15:06:39.894Z,51.23
2022-08-26T15:09:06.875Z,49.86
2022-08-26T15:11:33.371Z,51.67
2022-08-26T15:13:59.976Z,52.22
2022-08-26T15:16:28.937Z,52.86
2022-08-26T15:18:56.022Z,52.26
2022-08-26T15:21:23.434Z,53.78
2022-08-26T15:23:51.678Z,55.16
2022-08-26T15:26:19.131Z,64.16
2022-08-26T15:28:45.881Z,69.75
2022-08-26T15:31:12.656Z,73.82
2022-08-26T15:33:40.371Z,76.38
2022-08-26T15:36:07.968Z,80.93
2022-08-26T15:38:38.456Z,85.48
2022-08-26T15:41:08.600Z,79.10
2022-08-26T15:43:37.266Z,81.90
2022-08-26T15:46:04.666Z,83.31
2022-08-26T15:48:31.808Z,84.45
2022-08-26T15:51:01.459Z,86.37
2022-08-26T15:53:30.170Z,86.10
2022-08-26T15:55:58.244Z,91.75
2022-08-26T15:58:27.045Z,88.61
2022-08-26T16:00:54.399Z,90.67
2022-08-26T16:03:21.030Z,86.10
2022-08-26T16:05:48.132Z,89.11
2022-08-26T16:08:15.459Z,86.99
2022-08-26T16:10:49.803Z,84.06
2022-08-26T16:13:18.911Z,83.48
2022-08-26T16:15:47.435Z,85.60
2022-08-26T16:18:15.480Z,84.16
2022-08-26T16:20:55.321Z,86.17
2022-08-26T16:23:37.159Z,85.13
2022-08-26T16:26:15.734Z,84.48
2022-08-26T16:28:43.640Z,86.12
2022-08-26T16:31:11.454Z,89.63
2022-08-26T16:33:38.073Z,87.63
2022-08-26T16:36:05.999Z,86.21
2022-08-26T16:38:33.020Z,87.34
2022-08-26T16:41:01.103Z,87.07
2022-08-26T16:43:27.963Z,86.75
2022-08-26T16:45:54.643Z,76.19
2022-08-26T16:48:21.175Z,72.94
2022-08-26T16:50:47.678Z,72.65
2022-08-26T16:56:00.611Z,72.54
2022-08-26T16:58:39.405Z,70.63
2022-08-26T17:01:06.142Z,71.35
2022-08-26T17:03:33.262Z,72.10
2022-08-26T17:05:59.725Z,72.49
2022-08-26T17:08:32.844Z,72.04
2022-08-26T17:11:01.944Z,71.39
2022-08-26T17:13:34.878Z,69.75
2022-08-26T17:16:04.771Z,68.26
2022-08-26T17:18:35.456Z,70.41
2022-08-26T17:21:07.485Z,70.29
2022-08-26T17:23:34.805Z,67.31
2022-08-26T17:26:03.786Z,68.18
2022-08-26T17:28:30.639Z,66.80
2022-08-26T17:31:04.750Z,71.10
2022-08-26T17:33:31.423Z,71.15
2022-08-26T17:35:57.919Z,69.83
2022-08-26T17:38:25.587Z,72.64
2022-08-26T17:40:52.195Z,71.65
2022-08-26T17:43:19.068Z,73.20
2022-08-26T17:45:45.611Z,72.03
2022-08-26T17:48:12.478Z,73.33
2022-08-26T17:50:41.326Z,72.66
2022-08-26T17:53:08.843Z,75.43
2022-08-26T17:55:41.680Z,72.86
2022-08-26T17:58:11.719Z,73.54
2022-08-26T18:00:43.852Z,73.82
2022-08-26T18:03:10.499Z,75.52
2022-08-26T18:05:37.220Z,77.17
2022-08-26T18:08:03.866Z,79.56
2022-08-26T18:11:09.310Z,80.32
2022-08-26T18:13:37.362Z,82.89
2022-08-26T18:16:06.384Z,84.17
2022-08-26T18:18:34.184Z,81.94
2022-08-26T18:21:01.650Z,84.26
2022-08-26T18:23:28.605Z,85.81
2022-08-26T18:25:58.027Z,86.90
2022-08-26T18:28:24.480Z,87.01
2022-08-26T18:30:51.709Z,88.15
2022-08-26T18:33:19.355Z,87.82
2022-08-26T18:35:45.835Z,89.96
2022-08-26T18:38:14.279Z,88.47
2022-08-26T18:40:43.934Z,89.57
2022-08-26T18:43:10.753Z,91.65
2022-08-26T18:45:37.743Z,90.24
2022-08-26T18:48:06.131Z,92.97
2022-08-26T18:50:33.038Z,90.71
2022-08-26T18:52:59.508Z,91.07
2022-08-26T18:55:25.978Z,92.69
2022-08-26T18:57:52.462Z,91.85
2022-08-26T19:00:18.995Z,93.08
2022-08-26T19:02:47.061Z,92.50
2022-08-26T19:05:18.985Z,92.25
2022-08-26T19:07:46.077Z,93.77
2022-08-26T19:10:14.619Z,92.32
2022-08-26T19:12:41.111Z,91.34
2022-08-26T19:15:07.931Z,90.73
2022-08-26T19:17:34.386Z,92.34
2022-08-26T19:20:02.001Z,92.09
2022-08-26T19:22:28.434Z,90.26
2022-08-26T19:24:54.887Z,91.57
2022-08-26T19:27:21.376Z,91.41
2022-08-26T19:29:48.078Z,90.00
2022-08-26T19:32:14.646Z,89.97
2022-08-26T19:34:41.158Z,91.79
2022-08-26T19:37:07.665Z,91.69
2022-08-26T19:39:34.431Z,92.65
2022-08-26T19:42:00.933Z,92.65
2022-08-26T19:44:46.124Z,92.35
2022-08-26T19:47:13.038Z,93.04
2022-08-26T19:49:39.554Z,93.43
2022-08-26T19:52:06.342Z,93.09
2022-08-26T19:54:33.764Z,93.91
2022-08-26T19:57:00.489Z,92.68
2022-08-26T19:59:27.095Z,91.56
2022-08-26T20:02:01.294Z,90.98
2022-08-26T20:04:29.077Z,90.14
2022-08-26T20:06:57.648Z,90.64
2022-08-26T20:09:26.744Z,90.68
2022-08-26T20:11:53.983Z,90.74
2022-08-26T20:14:23.351Z,91.46
2022-08-26T20:16:49.940Z,91.97
2022-08-26T20:19:37.502Z,90.84
2022-08-26T20:22:04.604Z,88.75
2022-08-26T20:24:32.585Z,89.04
2022-08-26T20:26:59.120Z,88.65
2022-08-26T20:29:25.812Z,88.46
2022-08-26T20:31:53.138Z,88.99
2022-08-26T20:34:20.803Z,84.87
2022-08-26T20:36:49.588Z,85.70
2022-08-26T20:39:17.583Z,83.20
2022-08-26T20:41:45.489Z,84.41
2022-08-26T20:44:13.810Z,86.08
2022-08-26T20:46:41.054Z,86.62
2022-08-26T20:49:07.649Z,85.79
2022-08-26T20:51:37.283Z,85.46
2022-08-26T20:54:05.430Z,86.24
2022-08-26T20:56:31.931Z,85.51
2022-08-26T20:59:00.371Z,84.99
2022-08-26T21:01:34.336Z,85.91
2022-08-26T21:04:03.462Z,85.34
2022-08-26T21:06:38.408Z,86.62
2022-08-26T21:09:10.823Z,86.43
2022-08-26T21:11:38.394Z,87.83
2022-08-26T21:14:10.748Z,87.39
2022-08-26T21:16:45.356Z,87.59
2022-08-26T21:19:14.465Z,87.62
2022-08-26T21:21:41.723Z,87.49
2022-08-26T21:24:08.795Z,85.97
2022-08-26T21:26:35.557Z,85.83
2022-08-26T21:29:02.831Z,87.60
2022-08-26T21:31:39.973Z,87.75
2022-08-26T21:34:11.172Z,88.59
2022-08-26T21:36:37.796Z,87.60
2022-08-26T21:39:09.294Z,88.21
2022-08-26T21:41:38.170Z,88.28
2022-08-26T21:44:04.730Z,88.98
2022-08-26T21:46:31.207Z,89.43
2022-08-26T21:49:00.359Z,87.90
2022-08-26T21:51:32.354Z,88.16
2022-08-26T21:54:01.062Z,87.70
2022-08-26T21:56:29.511Z,88.56
2022-08-26T21:58:56.907Z,88.44
2022-08-26T22:01:25.752Z,87.90
2022-08-26T22:03:52.668Z,88.65
2022-08-26T22:06:22.607Z,88.32
2022-08-26T22:08:49.915Z,88.95
2022-08-26T22:11:16.723Z,87.97
2022-08-26T22:13:43.809Z,88.35
2022-08-26T22:16:11.350Z,88.32
2022-08-26T22:18:38.379Z,88.38
2022-08-26T22:21:09.232Z,87.91
2022-08-26T22:23:38.067Z,88.96
2022-08-26T22:26:06.442Z,88.85
2022-08-26T22:28:32.950Z,88.25
2022-08-26T22:30:59.499Z,89.69
2022-08-26T22:33:26.470Z,89.72
2022-08-26T22:35:53.779Z,89.60
2022-08-26T22:38:21.503Z,89.21
2022-08-26T22:40:50.855Z,89.78
2022-08-26T22:43:18.750Z,90.33
2022-08-26T22:45:48.255Z,90.80
2022-08-26T22:48:17.788Z,90.18
2022-08-26T22:50:47.141Z,91.48
2022-08-26T22:53:15.571Z,89.91
2022-08-26T22:55:43.489Z,89.83
2022-08-26T22:58:12.272Z,90.16
2022-08-26T23:00:40.022Z,91.18
2022-08-26T23:03:07.188Z,89.90
2022-08-26T23:05:33.971Z,90.67
2022-08-26T23:08:00.615Z,91.09
2022-08-26T23:10:27.247Z,91.10
2022-08-26T23:12:53.794Z,90.37
2022-08-26T23:15:21.199Z,91.14
2022-08-26T23:17:48.348Z,92.90
2022-08-26T23:20:25.503Z,90.47
2022-08-26T23:22:52.611Z,90.90
2022-08-26T23:25:19.634Z,90.88
2022-08-26T23:27:47.096Z,91.65
2022-08-26T23:30:16.836Z,92.16
2022-08-26T23:32:43.469Z,91.66
2022-08-26T23:35:11.653Z,92.59
2022-08-26T23:37:44.129Z,92.41
2022-08-26T23:40:16.136Z,93.43
2022-08-26T23:42:42.687Z,93.11
2022-08-26T23:45:12.666Z,94.13
2022-08-26T23:47:39.763Z,94.95
2022-08-26T23:50:07.215Z,94.88
2022-08-26T23:52:52.340Z,96.10
2022-08-26T23:55:18.890Z,96.03
2022-08-26T23:57:45.378Z,95.71
